Wetterdaten: Woche 26.03.18 - 01.04.18 (KW13)
Datum Zeit Temp. A. Feuchte A. Luftdruck Regen Wind Richtung Taupunkt Windchill Windben
26.03.2018 00:00 -2,1 C 79 % 1011,2 hPa 0,0 l/m 0,0 km/h N -5,2 C -2,1 C 0,0 km/h
26.03.2018 01:00 -2,6 C 81 % 1011,0 hPa 0,0 l/m 0,0 km/h N -5,4 C -2,6 C 0,0 km/h
26.03.2018 02:00 -3,0 C 82 % 1010,8 hPa 0,0 l/m 0,0 km/h N -5,6 C -3,0 C 0,0 km/h
26.03.2018 03:00 -3,5 C 83 % 1010,6 hPa 0,0 l/m 0,0 km/h N -6,0 C -3,5 C 0,0 km/h
26.03.2018 04:00 -3,8 C 84 % 1010,6 hPa 0,0 l/m 0,0 km/h N -6,1 C -3,8 C 0,0 km/h
26.03.2018 05:00 -4,1 C 84 % 1010,7 hPa 0,0 l/m 0,0 km/h N -6,4 C -4,1 C 0,0 km/h
26.03.2018 06:00 -4,2 C 84 % 1011,0 hPa 0,0 l/m 0,0 km/h N -6,5 C -4,2 C 0,0 km/h
26.03.2018 07:00 -3,9 C 84 % 1011,3 hPa 0,0 l/m 0,0 km/h N -6,2 C -3,9 C 0,0 km/h
26.03.2018 08:00 -2,0 C 84 % 1011,8 hPa 0,0 l/m 0,1 km/h N -4,4 C -2,0 C 2,0 km/h
26.03.2018 09:00 0,8 C 84 % 1012,0 hPa 0,0 l/m 1,6 km/h N -1,5 C 0,8 C 8,1 km/h
26.03.2018 10:00 2,8 C 79 % 1012,7 hPa 0,0 l/m 4,0 km/h N -0,5 C 2,8 C 9,7 km/h
26.03.2018 11:00 4,8 C 71 % 1012,4 hPa 0,0 l/m 2,4 km/h N -0,1 C 4,8 C 8,9 km/h
26.03.2018 12:00 6,8 C 63 % 1012,2 hPa 0,0 l/m 2,4 km/h N 0,2 C 6,8 C 12,9 km/h
26.03.2018 13:00 8,4 C 58 % 1011,9 hPa 0,0 l/m 7,3 km/h N 0,5 C 7,2 C 22,5 km/h
26.03.2018 14:00 8,5 C 57 % 1011,9 hPa 0,0 l/m 5,6 km/h N 0,5 C 8,5 C 17,7 km/h
26.03.2018 15:00 8,9 C 55 % 1011,7 hPa 0,0 l/m 6,4 km/h N 0,2 C 8,9 C 20,1 km/h
26.03.2018 16:00 8,4 C 55 % 1011,9 hPa 0,0 l/m 4,8 km/h N -0,2 C 8,4 C 14,5 km/h
26.03.2018 17:00 8,1 C 56 % 1011,8 hPa 0,0 l/m 0,8 km/h N -0,2 C 8,1 C 8,0 km/h
26.03.2018 18:00 7,9 C 57 % 1011,9 hPa 0,0 l/m 0,0 km/h N -0,3 C 7,9 C 4,8 km/h
26.03.2018 19:00 7,6 C 58 % 1012,4 hPa 0,0 l/m 0,0 km/h N -0,3 C 7,6 C 7,2 km/h
26.03.2018 20:00 7,0 C 61 % 1012,8 hPa 0,0 l/m 0,0 km/h N -0,1 C 7,0 C 3,2 km/h
26.03.2018 21:00 6,5 C 67 % 1013,0 hPa 0,0 l/m 0,0 km/h N 0,7 C 6,5 C 3,2 km/h
26.03.2018 22:00 5,9 C 68 % 1013,3 hPa 0,0 l/m 0,0 km/h N 0,5 C 5,9 C 1,6 km/h
26.03.2018 23:00 6,4 C 66 % 1013,4 hPa 0,0 l/m 5,6 km/h N 0,4 C 5,7 C 14,5 km/h
27.03.2018 00:00 6,1 C 67 % 1013,5 hPa 0,0 l/m 5,6 km/h N 0,4 C 6,2 C 19,3 km/h
27.03.2018 01:00 5,6 C 70 % 1013,4 hPa 0,0 l/m 4,8 km/h N 0,5 C 5,7 C 18,5 km/h
27.03.2018 02:00 5,6 C 70 % 1013,3 hPa 0,0 l/m 4,8 km/h N 0,6 C 5,7 C 15,3 km/h
27.03.2018 03:00 5,5 C 71 % 1013,5 hPa 0,0 l/m 8,0 km/h N 0,7 C 4,1 C 20,9 km/h
27.03.2018 04:00 4,8 C 78 % 1013,3 hPa 0,0 l/m 7,2 km/h N 1,2 C 4,1 C 18,5 km/h
27.03.2018 05:00 4,8 C 78 % 1013,5 hPa 0,0 l/m 4,8 km/h N 1,3 C 4,8 C 12,1 km/h
27.03.2018 06:00 4,9 C 77 % 1013,5 hPa 0,0 l/m 4,6 km/h N 1,2 C 4,9 C 12,5 km/h
27.03.2018 07:00 5,0 C 79 % 1013,7 hPa 0,0 l/m 4,1 km/h N 1,6 C 5,0 C 14,1 km/h
27.03.2018 08:00 5,3 C 77 % 1014,1 hPa 0,0 l/m 5,1 km/h N 1,6 C 5,0 C 13,3 km/h
27.03.2018 09:00 5,5 C 78 % 1014,3 hPa 0,0 l/m 4,7 km/h N 2,0 C 5,5 C 13,7 km/h
27.03.2018 10:00 6,4 C 75 % 1014,3 hPa 0,0 l/m 7,9 km/h N 2,3 C 5,2 C 19,3 km/h
27.03.2018 11:00 7,4 C 69 % 1014,3 hPa 0,0 l/m 8,7 km/h N 2,0 C 5,6 C 22,9 km/h
27.03.2018 12:00 8,7 C 62 % 1014,0 hPa 0,0 l/m 6,4 km/h N 1,9 C 8,4 C 17,3 km/h
27.03.2018 13:00 7,9 C 67 % 1014,2 hPa 0,3 l/m 6,5 km/h N 2,1 C 7,5 C 17,3 km/h
27.03.2018 14:00 6,1 C 80 % 1014,0 hPa 0,3 l/m 3,3 km/h N 2,9 C 6,1 C 9,3 km/h
27.03.2018 15:00 7,2 C 78 % 1013,5 hPa 0,0 l/m 3,3 km/h N 3,6 C 7,2 C 12,1 km/h
27.03.2018 16:00 7,7 C 72 % 1013,1 hPa 0,0 l/m 5,2 km/h N 2,9 C 7,4 C 15,7 km/h
27.03.2018 17:00 6,8 C 73 % 1013,5 hPa 0,0 l/m 7,0 km/h N 2,3 C 5,8 C 17,7 km/h
27.03.2018 18:00 5,5 C 78 % 1013,7 hPa 0,0 l/m 4,2 km/h N 2,0 C 5,5 C 12,1 km/h
27.03.2018 19:00 4,7 C 81 % 1014,0 hPa 1,0 l/m 1,1 km/h N 1,8 C 4,7 C 4,8 km/h
27.03.2018 20:00 4,2 C 83 % 1013,8 hPa 0,0 l/m 0,9 km/h N 1,5 C 4,2 C 5,2 km/h
27.03.2018 21:00 3,7 C 83 % 1013,7 hPa 0,0 l/m 0,6 km/h N 1,1 C 3,7 C 5,2 km/h
27.03.2018 22:00 2,8 C 83 % 1013,4 hPa 0,0 l/m 0,5 km/h N 0,2 C 2,8 C 4,8 km/h
27.03.2018 23:00 2,5 C 83 % 1013,1 hPa 0,0 l/m 0,6 km/h N -0,1 C 2,5 C 3,6 km/h
28.03.2018 00:00 1,8 C 84 % 1013,0 hPa 0,0 l/m 0,0 km/h N -0,6 C 1,8 C 0,0 km/h
28.03.2018 01:00 0,6 C 84 % 1012,9 hPa 0,0 l/m 0,0 km/h N -1,8 C 0,6 C 0,0 km/h
28.03.2018 02:00 -0,6 C 84 % 1012,5 hPa 0,0 l/m 0,0 km/h N -3,0 C -0,6 C 0,0 km/h
28.03.2018 03:00 -1,2 C 84 % 1011,9 hPa 0,0 l/m 0,0 km/h N -3,6 C -1,2 C 0,0 km/h
28.03.2018 04:00 -1,4 C 84 % 1011,4 hPa 0,0 l/m 0,0 km/h N -3,7 C -1,4 C 0,0 km/h
28.03.2018 05:00 -1,3 C 84 % 1011,1 hPa 0,0 l/m 0,0 km/h N -3,7 C -1,3 C 0,0 km/h
28.03.2018 06:00 -2,0 C 84 % 1011,1 hPa 0,0 l/m 0,0 km/h N -4,3 C -2,0 C 0,0 km/h
28.03.2018 07:00 -2,3 C 84 % 1011,3 hPa 0,0 l/m 0,0 km/h N -4,6 C -2,3 C 0,0 km/h
28.03.2018 08:00 -1,0 C 84 % 1011,3 hPa 0,0 l/m 0,0 km/h N -3,3 C -1,0 C 0,0 km/h
28.03.2018 09:00 1,8 C 84 % 1011,0 hPa 0,0 l/m 0,0 km/h N -0,6 C 1,8 C 2,0 km/h
28.03.2018 10:00 4,8 C 83 % 1011,0 hPa 0,0 l/m 0,1 km/h N 2,2 C 4,8 C 2,8 km/h
28.03.2018 11:00 6,8 C 75 % 1010,7 hPa 0,0 l/m 0,3 km/h N 2,6 C 6,8 C 5,2 km/h
28.03.2018 12:00 8,4 C 69 % 1010,1 hPa 0,0 l/m 0,2 km/h N 3,1 C 8,4 C 4,4 km/h
28.03.2018 13:00 10,2 C 62 % 1009,2 hPa 0,0 l/m 0,5 km/h N 3,1 C 10,2 C 5,6 km/h
28.03.2018 14:00 10,4 C 63 % 1008,7 hPa 0,3 l/m 3,8 km/h N 3,6 C 10,4 C 13,7 km/h
28.03.2018 15:00 9,5 C 73 % 1008,4 hPa 0,0 l/m 2,1 km/h N 4,8 C 9,5 C 9,7 km/h
28.03.2018 16:00 8,9 C 77 % 1007,8 hPa 0,0 l/m 1,0 km/h N 5,1 C 8,9 C 7,6 km/h
28.03.2018 17:00 8,8 C 79 % 1007,1 hPa 0,0 l/m 0,2 km/h N 5,4 C 8,8 C 5,2 km/h
28.03.2018 18:00 9,0 C 79 % 1006,5 hPa 0,0 l/m 0,2 km/h N 5,6 C 9,0 C 3,2 km/h
28.03.2018 19:00 8,5 C 79 % 1006,2 hPa 0,0 l/m 0,1 km/h N 5,1 C 8,5 C 1,6 km/h
28.03.2018 20:00 8,1 C 80 % 1005,7 hPa 0,0 l/m 0,0 km/h N 5,0 C 8,1 C 0,4 km/h
28.03.2018 21:00 8,2 C 80 % 1005,1 hPa 0,0 l/m 0,2 km/h N 5,0 C 8,2 C 3,2 km/h
28.03.2018 22:00 8,5 C 80 % 1004,2 hPa 0,0 l/m 0,0 km/h N 5,3 C 8,5 C 2,4 km/h
28.03.2018 23:00 8,4 C 82 % 1003,7 hPa 0,3 l/m 0,0 km/h N 5,4 C 8,4 C 0,8 km/h
29.03.2018 00:00 8,1 C 82 % 1003,0 hPa 0,0 l/m 0,4 km/h N 5,2 C 8,1 C 3,2 km/h
29.03.2018 01:00 7,6 C 82 % 1002,4 hPa 0,0 l/m 0,1 km/h N 4,6 C 7,6 C 1,2 km/h
29.03.2018 02:00 6,9 C 83 % 1002,3 hPa 0,0 l/m 0,1 km/h N 4,1 C 6,9 C 2,0 km/h
29.03.2018 03:00 6,7 C 83 % 1002,2 hPa 0,0 l/m 0,0 km/h N 4,0 C 6,7 C 0,0 km/h
29.03.2018 04:00 6,6 C 83 % 1002,4 hPa 0,0 l/m 0,0 km/h N 4,0 C 6,6 C 0,0 km/h
29.03.2018 05:00 6,7 C 83 % 1002,6 hPa 0,0 l/m 0,0 km/h N 4,0 C 6,7 C 0,8 km/h
29.03.2018 06:00 6,8 C 83 % 1003,2 hPa 0,0 l/m 0,1 km/h N 4,2 C 6,8 C 2,8 km/h
29.03.2018 07:00 9,1 C 82 % 1003,8 hPa 0,0 l/m 4,3 km/h N 6,1 C 9,1 C 14,5 km/h
29.03.2018 08:00 10,6 C 72 % 1004,7 hPa 0,0 l/m 5,9 km/h N 5,7 C 10,4 C 20,9 km/h
29.03.2018 09:00 10,2 C 71 % 1005,7 hPa 0,0 l/m 10,6 km/h N 5,1 C 7,5 C 28,6 km/h
29.03.2018 10:00 9,9 C 67 % 1006,6 hPa 0,0 l/m 10,2 km/h N 4,0 C 7,5 C 31,0 km/h
29.03.2018 11:00 9,8 C 67 % 1007,0 hPa 0,0 l/m 7,5 km/h N 3,8 C 8,9 C 23,3 km/h
29.03.2018 12:00 10,3 C 63 % 1007,5 hPa 0,0 l/m 7,1 km/h N 3,4 C 9,7 C 24,9 km/h
29.03.2018 13:00 11,2 C 60 % 1007,7 hPa 0,0 l/m 6,4 km/h N 3,6 C 10,7 C 21,7 km/h
29.03.2018 14:00 12,1 C 53 % 1007,4 hPa 0,0 l/m 5,4 km/h N 2,9 C 12,1 C 19,3 km/h
29.03.2018 15:00 11,8 C 52 % 1007,5 hPa 0,0 l/m 6,9 km/h N 2,3 C 11,4 C 22,5 km/h
29.03.2018 16:00 11,8 C 54 % 1007,3 hPa 0,0 l/m 3,2 km/h N 2,7 C 11,8 C 14,5 km/h
29.03.2018 17:00 10,6 C 61 % 1007,5 hPa 0,0 l/m 3,2 km/h N 3,3 C 10,6 C 12,5 km/h
29.03.2018 18:00 9,3 C 64 % 1007,6 hPa 0,0 l/m 4,8 km/h N 2,8 C 9,3 C 16,1 km/h
29.03.2018 19:00 9,2 C 64 % 1008,1 hPa 0,0 l/m 1,8 km/h N 2,7 C 9,2 C 8,0 km/h
29.03.2018 20:00 8,7 C 68 % 1008,8 hPa 0,0 l/m 0,6 km/h N 3,1 C 8,7 C 4,0 km/h
29.03.2018 21:00 8,2 C 73 % 1010,0 hPa 0,5 l/m 1,6 km/h N 3,5 C 8,2 C 8,4 km/h
29.03.2018 22:00 7,0 C 78 % 1010,3 hPa 0,5 l/m 0,4 km/h N 3,5 C 7,0 C 4,4 km/h
29.03.2018 23:00 6,3 C 82 % 1010,4 hPa 0,5 l/m 0,5 km/h N 3,4 C 6,3 C 4,4 km/h
30.03.2018 00:00 5,9 C 83 % 1010,7 hPa 0,0 l/m 0,2 km/h N 3,2 C 5,9 C 3,2 km/h
30.03.2018 01:00 5,7 C 83 % 1010,8 hPa 0,0 l/m 0,0 km/h N 3,0 C 5,7 C 0,4 km/h
30.03.2018 02:00 5,5 C 83 % 1011,2 hPa 0,0 l/m 0,4 km/h N 2,8 C 5,5 C 3,6 km/h
30.03.2018 03:00 5,5 C 83 % 1011,2 hPa 0,0 l/m 0,0 km/h N 2,9 C 5,5 C 0,8 km/h
30.03.2018 04:00 4,8 C 83 % 1010,8 hPa 0,0 l/m 0,0 km/h N 2,1 C 4,8 C 0,0 km/h
30.03.2018 05:00 4,4 C 83 % 1010,9 hPa 0,0 l/m 0,0 km/h N 1,8 C 4,4 C 0,4 km/h
30.03.2018 06:00 3,6 C 83 % 1010,9 hPa 0,0 l/m 0,0 km/h N 1,0 C 3,6 C 0,0 km/h
30.03.2018 07:00 3,5 C 83 % 1010,9 hPa 0,0 l/m 0,0 km/h N 0,9 C 3,5 C 0,0 km/h
30.03.2018 08:00 5,0 C 83 % 1010,7 hPa 0,0 l/m 0,0 km/h N 2,4 C 5,0 C 0,0 km/h
30.03.2018 09:00 7,2 C 83 % 1010,6 hPa 0,0 l/m 0,7 km/h N 4,5 C 7,2 C 6,0 km/h
30.03.2018 10:00 8,8 C 81 % 1010,4 hPa 0,0 l/m 1,4 km/h N 5,7 C 8,8 C 6,8 km/h
30.03.2018 11:00 9,8 C 75 % 1010,1 hPa 0,0 l/m 1,8 km/h N 5,7 C 9,8 C 8,0 km/h
30.03.2018 12:00 10,7 C 72 % 1009,2 hPa 0,0 l/m 2,8 km/h N 5,9 C 10,7 C 10,5 km/h
30.03.2018 13:00 10,9 C 73 % 1008,4 hPa 0,0 l/m 2,0 km/h N 6,1 C 10,9 C 9,2 km/h
30.03.2018 14:00 11,1 C 72 % 1007,5 hPa 0,0 l/m 2,8 km/h N 6,2 C 11,1 C 15,7 km/h
30.03.2018 15:00 13,0 C 69 % 1005,8 hPa 0,0 l/m 4,7 km/h N 7,5 C 13,0 C 21,7 km/h
30.03.2018 16:00 12,9 C 69 % 1004,9 hPa 0,0 l/m 4,3 km/h N 7,3 C 12,9 C 16,5 km/h
30.03.2018 17:00 12,1 C 71 % 1004,1 hPa 0,0 l/m 4,3 km/h N 6,9 C 12,1 C 16,5 km/h
30.03.2018 18:00 10,8 C 75 % 1003,6 hPa 0,0 l/m 5,6 km/h N 6,5 C 10,8 C 19,7 km/h
30.03.2018 19:00 9,9 C 78 % 1003,4 hPa 0,0 l/m 4,7 km/h N 6,2 C 9,9 C 19,7 km/h
30.03.2018 20:00 9,7 C 80 % 1003,3 hPa 0,0 l/m 4,4 km/h N 6,4 C 9,7 C 17,3 km/h
30.03.2018 21:00 9,8 C 80 % 1003,1 hPa 0,0 l/m 2,4 km/h N 6,5 C 9,8 C 10,5 km/h
30.03.2018 22:00 10,2 C 80 % 1002,4 hPa 0,0 l/m 0,8 km/h N 6,9 C 10,2 C 10,1 km/h
30.03.2018 23:00 10,5 C 80 % 1001,8 hPa 0,0 l/m 0,6 km/h N 7,1 C 10,5 C 6,4 km/h
31.03.2018 00:00 10,6 C 79 % 1000,9 hPa 0,0 l/m 2,6 km/h N 7,1 C 10,6 C 12,5 km/h
31.03.2018 01:00 11,3 C 77 % 1000,4 hPa 0,0 l/m 3,3 km/h N 7,3 C 11,3 C 17,3 km/h
31.03.2018 02:00 11,4 C 75 % 999,5 hPa 0,0 l/m 1,1 km/h N 7,2 C 11,4 C 7,7 km/h
31.03.2018 03:00 11,4 C 76 % 999,0 hPa 0,0 l/m 0,4 km/h N 7,2 C 11,4 C 6,8 km/h
31.03.2018 04:00 11,3 C 77 % 998,0 hPa 0,0 l/m 0,1 km/h N 7,4 C 11,3 C 3,2 km/h
31.03.2018 05:00 11,3 C 78 % 997,4 hPa 0,0 l/m 0,9 km/h N 7,5 C 11,3 C 7,2 km/h
31.03.2018 06:00 11,2 C 78 % 997,3 hPa 0,0 l/m 0,6 km/h N 7,5 C 11,2 C 5,2 km/h
31.03.2018 07:00 10,8 C 79 % 996,8 hPa 0,0 l/m 1,1 km/h N 7,3 C 10,8 C 6,0 km/h
31.03.2018 08:00 11,1 C 79 % 996,4 hPa 0,0 l/m 1,9 km/h N 7,6 C 11,1 C 10,9 km/h
31.03.2018 09:00 12,2 C 76 % 996,0 hPa 0,0 l/m 3,0 km/h N 8,2 C 12,2 C 18,5 km/h
31.03.2018 10:00 13,3 C 73 % 995,9 hPa 0,0 l/m 3,0 km/h N 8,6 C 13,3 C 13,3 km/h
31.03.2018 11:00 14,6 C 67 % 995,8 hPa 0,0 l/m 3,1 km/h N 8,5 C 14,6 C 18,9 km/h
31.03.2018 12:00 15,2 C 62 % 995,8 hPa 0,0 l/m 2,7 km/h N 8,0 C 15,2 C 14,1 km/h
31.03.2018 13:00 14,9 C 63 % 995,9 hPa 0,0 l/m 3,2 km/h N 7,8 C 14,9 C 14,1 km/h
31.03.2018 14:00 14,6 C 63 % 995,2 hPa 0,0 l/m 1,6 km/h N 7,7 C 14,6 C 14,1 km/h
31.03.2018 15:00 14,3 C 66 % 995,0 hPa 0,0 l/m 1,0 km/h N 8,0 C 14,3 C 10,1 km/h
31.03.2018 16:00 12,9 C 67 % 994,3 hPa 0,0 l/m 3,9 km/h N 6,8 C 12,9 C 12,9 km/h
31.03.2018 17:00 12,8 C 66 % 994,0 hPa 0,0 l/m 3,8 km/h N 6,5 C 12,8 C 9,3 km/h
31.03.2018 18:00 12,1 C 68 % 993,8 hPa 0,0 l/m 5,0 km/h N 6,4 C 12,1 C 14,1 km/h
31.03.2018 19:00 11,0 C 71 % 994,0 hPa 0,0 l/m 3,0 km/h N 6,0 C 11,0 C 12,5 km/h
31.03.2018 20:00 10,1 C 73 % 994,2 hPa 0,0 l/m 4,2 km/h N 5,5 C 10,0 C 12,5 km/h
31.03.2018 21:00 9,4 C 77 % 994,3 hPa 0,3 l/m 6,3 km/h N 5,5 C 9,1 C 16,9 km/h
31.03.2018 22:00 8,4 C 81 % 994,6 hPa 1,3 l/m 2,0 km/h N 5,4 C 8,4 C 8,9 km/h
31.03.2018 23:00 8,1 C 83 % 995,0 hPa 9,4 l/m 0,1 km/h N 5,3 C 8,1 C 2,4 km/h
01.04.2018 00:00 7,7 C 83 % 995,1 hPa 1,6 l/m 2,7 km/h N 5,0 C 7,7 C 10,1 km/h
01.04.2018 01:00 7,6 C 83 % 995,2 hPa 1,3 l/m 7,4 km/h N 4,9 C 6,6 C 20,5 km/h
01.04.2018 02:00 7,4 C 83 % 995,4 hPa 1,6 l/m 8,5 km/h N 4,7 C 5,7 C 22,5 km/h
01.04.2018 03:00 7,3 C 82 % 996,0 hPa 0,5 l/m 12,6 km/h N 4,5 C 3,0 C 29,8 km/h
01.04.2018 04:00 7,3 C 82 % 996,3 hPa 1,0 l/m 13,6 km/h N 4,3 C 2,5 C 30,2 km/h
01.04.2018 05:00 7,3 C 79 % 996,4 hPa 0,0 l/m 15,1 km/h N 4,0 C 1,9 C 36,2 km/h
01.04.2018 06:00 7,4 C 76 % 996,8 hPa 0,0 l/m 13,8 km/h N 3,4 C 2,6 C 33,8 km/h
01.04.2018 07:00 7,6 C 74 % 997,4 hPa 0,0 l/m 14,8 km/h N 3,3 C 2,3 C 34,2 km/h
01.04.2018 08:00 8,0 C 72 % 997,9 hPa 0,3 l/m 18,6 km/h N 3,2 C 1,3 C 42,3 km/h
01.04.2018 09:00 8,4 C 69 % 998,6 hPa 0,0 l/m 17,4 km/h N 3,0 C 2,3 C 41,0 km/h
01.04.2018 10:00 9,0 C 66 % 999,2 hPa 0,0 l/m 15,5 km/h N 3,0 C 3,7 C 41,8 km/h
01.04.2018 11:00 10,0 C 65 % 999,9 hPa 0,0 l/m 15,0 km/h N 3,6 C 5,2 C 37,4 km/h
01.04.2018 12:00 10,6 C 62 % 1000,0 hPa 0,0 l/m 16,4 km/h N 3,6 C 5,4 C 42,3 km/h
01.04.2018 13:00 10,4 C 63 % 1000,6 hPa 0,0 l/m 16,4 km/h N 3,7 C 5,1 C 40,7 km/h
01.04.2018 14:00 11,4 C 59 % 1001,3 hPa 0,0 l/m 16,1 km/h N 3,6 C 6,4 C 37,0 km/h
01.04.2018 15:00 12,0 C 56 % 1001,7 hPa 0,0 l/m 13,9 km/h N 3,5 C 8,0 C 38,2 km/h
01.04.2018 16:00 11,0 C 61 % 1002,3 hPa 0,0 l/m 14,1 km/h N 3,7 C 6,8 C 39,5 km/h
01.04.2018 17:00 10,3 C 63 % 1002,6 hPa 0,0 l/m 17,5 km/h N 3,4 C 4,5 C 48,3 km/h
01.04.2018 18:00 9,9 C 59 % 1002,8 hPa 0,0 l/m 17,6 km/h N 2,2 C 4,0 C 42,7 km/h
01.04.2018 19:00 9,0 C 64 % 1004,0 hPa 0,0 l/m 15,6 km/h N 2,5 C 3,7 C 39,0 km/h
01.04.2018 20:00 8,0 C 68 % 1005,1 hPa 0,0 l/m 14,7 km/h N 2,5 C 2,9 C 42,2 km/h
01.04.2018 21:00 7,2 C 68 % 1005,8 hPa 0,0 l/m 14,7 km/h N 1,6 C 2,0 C 39,4 km/h
01.04.2018 22:00 7,2 C 68 % 1006,2 hPa 0,0 l/m 16,6 km/h N 1,8 C 1,1 C 45,4 km/h
01.04.2018 23:00 7,1 C 69 % 1007,1 hPa 0,0 l/m 16,1 km/h N 1,8 C 1,2 C 39,8 km/h
Min-Datum _ 26.03.18 29.03.18 31.03.18 - 26.03.18 - 26.03.18 26.03.18 26.03.18
_ Min-Zeit 06:15 15:30 18:30 - 00:00 - 06:15 06:15 00:00
Minimum _ -4,3 C 51 % 993,6 hPa - 0,0 km/h - -6,6 C -4,3 C 0,0 km/h
Max-Datum _ 31.03.18 26.03.18 27.03.18 31.03.18 01.04.18 - 31.03.18 31.03.18 01.04.18
_ Max-Zeit 12:30 04:15 13:30 23:30 12:30 - 10:30 12:30 22:30
Maximum _ 15,3 C 84 % 1014,5 hPa 9,4 l/m 21,2 km/h
N
- 8,8 C 15,3 C 57,9 km/h
N
Durchschnitt _ 7,3 C 74 % 1006,4 hPa #20,8 l/m 4,1 km/h N 2,8 C 6,5 C 13,0 km/h